sensor_id;sensor_type;location;lat;lon;timestamp;temperature;humidity
6333;DHT22;3199;49.102;8.856;2022-07-24T00:00:48;21.30;99.90
6333;DHT22;3199;49.102;8.856;2022-07-24T00:03:14;21.30;99.90
6333;DHT22;3199;49.102;8.856;2022-07-24T00:05:39;21.30;99.90
6333;DHT22;3199;49.102;8.856;2022-07-24T00:08:05;21.30;99.90
6333;DHT22;3199;49.102;8.856;2022-07-24T00:10:31;21.20;99.90
6333;DHT22;3199;49.102;8.856;2022-07-24T00:12:56;21.20;99.90
6333;DHT22;3199;49.102;8.856;2022-07-24T00:15:22;21.20;99.90
6333;DHT22;3199;49.102;8.856;2022-07-24T00:17:48;21.20;99.90
6333;DHT22;3199;49.102;8.856;2022-07-24T00:20:14;21.10;99.90
6333;DHT22;3199;49.102;8.856;2022-07-24T00:22:39;21.10;99.90
6333;DHT22;3199;49.102;8.856;2022-07-24T00:25:05;21.00;99.90
6333;DHT22;3199;49.102;8.856;2022-07-24T00:27:31;20.90;99.90
6333;DHT22;3199;49.102;8.856;2022-07-24T00:29:56;20.80;99.90
6333;DHT22;3199;49.102;8.856;2022-07-24T00:32:22;20.80;99.90
6333;DHT22;3199;49.102;8.856;2022-07-24T00:34:47;20.80;99.90
6333;DHT22;3199;49.102;8.856;2022-07-24T00:37:13;20.80;99.90
6333;DHT22;3199;49.102;8.856;2022-07-24T00:39:38;20.80;99.90
6333;DHT22;3199;49.102;8.856;2022-07-24T00:42:04;20.80;99.90
6333;DHT22;3199;49.102;8.856;2022-07-24T00:44:30;20.80;99.90
6333;DHT22;3199;49.102;8.856;2022-07-24T00:46:55;20.80;99.90
6333;DHT22;3199;49.102;8.856;2022-07-24T00:49:21;20.80;99.90
6333;DHT22;3199;49.102;8.856;2022-07-24T00:51:49;20.70;99.90
6333;DHT22;3199;49.102;8.856;2022-07-24T00:54:17;20.70;99.90
6333;DHT22;3199;49.102;8.856;2022-07-24T00:56:45;20.70;99.90
6333;DHT22;3199;49.102;8.856;2022-07-24T00:59:11;20.70;99.90
6333;DHT22;3199;49.102;8.856;2022-07-24T01:01:37;20.70;99.90
6333;DHT22;3199;49.102;8.856;2022-07-24T01:04:03;20.70;99.90
6333;DHT22;3199;49.102;8.856;2022-07-24T01:06:29;20.70;99.90
6333;DHT22;3199;49.102;8.856;2022-07-24T01:08:55;20.70;99.90
6333;DHT22;3199;49.102;8.856;2022-07-24T01:11:21;20.70;99.90
6333;DHT22;3199;49.102;8.856;2022-07-24T01:13:48;20.70;99.90
6333;DHT22;3199;49.102;8.856;2022-07-24T01:16:14;20.70;99.90
6333;DHT22;3199;49.102;8.856;2022-07-24T01:18:40;20.70;99.90
6333;DHT22;3199;49.102;8.856;2022-07-24T01:21:06;20.70;99.90
6333;DHT22;3199;49.102;8.856;2022-07-24T01:23:32;20.60;99.90
6333;DHT22;3199;49.102;8.856;2022-07-24T01:25:58;20.50;99.90
6333;DHT22;3199;49.102;8.856;2022-07-24T01:28:24;20.50;99.90
6333;DHT22;3199;49.102;8.856;2022-07-24T01:30:49;20.50;99.90
6333;DHT22;3199;49.102;8.856;2022-07-24T01:33:15;20.50;99.90
6333;DHT22;3199;49.102;8.856;2022-07-24T01:35:42;20.50;99.90
6333;DHT22;3199;49.102;8.856;2022-07-24T01:38:08;20.40;99.90
6333;DHT22;3199;49.102;8.856;2022-07-24T01:40:34;20.40;99.90
6333;DHT22;3199;49.102;8.856;2022-07-24T01:43:00;20.40;99.90
6333;DHT22;3199;49.102;8.856;2022-07-24T01:45:26;20.40;99.90
6333;DHT22;3199;49.102;8.856;2022-07-24T01:47:51;20.40;99.90
6333;DHT22;3199;49.102;8.856;2022-07-24T01:50:17;20.40;99.90
6333;DHT22;3199;49.102;8.856;2022-07-24T01:52:43;20.40;99.90
6333;DHT22;3199;49.102;8.856;2022-07-24T01:55:09;20.30;99.90
6333;DHT22;3199;49.102;8.856;2022-07-24T01:57:35;20.30;99.90
6333;DHT22;3199;49.102;8.856;2022-07-24T02:00:01;20.20;99.90
6333;DHT22;3199;49.102;8.856;2022-07-24T02:02:27;20.20;99.90
6333;DHT22;3199;49.102;8.856;2022-07-24T02:04:53;20.10;99.90
6333;DHT22;3199;49.102;8.856;2022-07-24T02:07:19;20.00;99.90
6333;DHT22;3199;49.102;8.856;2022-07-24T02:09:45;20.00;99.90
6333;DHT22;3199;49.102;8.856;2022-07-24T02:12:10;20.00;99.90
6333;DHT22;3199;49.102;8.856;2022-07-24T02:14:36;19.90;99.90
6333;DHT22;3199;49.102;8.856;2022-07-24T02:17:02;19.80;99.90
6333;DHT22;3199;49.102;8.856;2022-07-24T02:19:28;19.80;99.90
6333;DHT22;3199;49.102;8.856;2022-07-24T02:21:54;19.80;99.90
6333;DHT22;3199;49.102;8.856;2022-07-24T02:24:19;19.80;99.90
6333;DHT22;3199;49.102;8.856;2022-07-24T02:26:45;19.80;99.90
6333;DHT22;3199;49.102;8.856;2022-07-24T02:29:10;19.80;99.90
6333;DHT22;3199;49.102;8.856;2022-07-24T02:31:36;19.70;99.90
6333;DHT22;3199;49.102;8.856;2022-07-24T02:34:02;19.70;99.90
6333;DHT22;3199;49.102;8.856;2022-07-24T02:36:27;19.70;99.90
6333;DHT22;3199;49.102;8.856;2022-07-24T02:38:53;19.70;99.90
6333;DHT22;3199;49.102;8.856;2022-07-24T02:41:19;19.70;99.90
6333;DHT22;3199;49.102;8.856;2022-07-24T02:43:44;19.70;99.90
6333;DHT22;3199;49.102;8.856;2022-07-24T02:46:10;19.70;99.90
6333;DHT22;3199;49.102;8.856;2022-07-24T02:48:35;19.70;99.90
6333;DHT22;3199;49.102;8.856;2022-07-24T02:51:02;19.70;99.90
6333;DHT22;3199;49.102;8.856;2022-07-24T02:53:27;19.70;99.90
6333;DHT22;3199;49.102;8.856;2022-07-24T02:55:53;19.70;99.90
6333;DHT22;3199;49.102;8.856;2022-07-24T02:58:18;19.60;99.90
6333;DHT22;3199;49.102;8.856;2022-07-24T03:00:44;19.60;99.90
6333;DHT22;3199;49.102;8.856;2022-07-24T03:03:09;19.60;99.90
6333;DHT22;3199;49.102;8.856;2022-07-24T03:05:35;19.60;99.90
6333;DHT22;3199;49.102;8.856;2022-07-24T03:08:01;19.50;99.90
6333;DHT22;3199;49.102;8.856;2022-07-24T03:10:26;19.60;99.90
6333;DHT22;3199;49.102;8.856;2022-07-24T03:12:52;19.50;99.90
6333;DHT22;3199;49.102;8.856;2022-07-24T03:15:17;19.50;99.90
6333;DHT22;3199;49.102;8.856;2022-07-24T03:17:55;19.50;99.90
6333;DHT22;3199;49.102;8.856;2022-07-24T03:20:22;19.50;99.90
6333;DHT22;3199;49.102;8.856;2022-07-24T03:22:48;19.50;99.90
6333;DHT22;3199;49.102;8.856;2022-07-24T03:25:14;19.50;99.90
6333;DHT22;3199;49.102;8.856;2022-07-24T03:27:40;19.50;99.90
6333;DHT22;3199;49.102;8.856;2022-07-24T03:30:07;19.40;99.90
6333;DHT22;3199;49.102;8.856;2022-07-24T03:32:33;19.40;99.90
6333;DHT22;3199;49.102;8.856;2022-07-24T03:34:58;19.40;99.90
6333;DHT22;3199;49.102;8.856;2022-07-24T03:37:24;19.30;99.90
6333;DHT22;3199;49.102;8.856;2022-07-24T03:39:49;19.20;99.90
6333;DHT22;3199;49.102;8.856;2022-07-24T03:42:15;19.20;99.90
6333;DHT22;3199;49.102;8.856;2022-07-24T03:44:40;19.20;99.90
6333;DHT22;3199;49.102;8.856;2022-07-24T03:47:06;19.10;99.90
6333;DHT22;3199;49.102;8.856;2022-07-24T03:49:32;19.10;99.90
6333;DHT22;3199;49.102;8.856;2022-07-24T03:51:58;19.10;99.90
6333;DHT22;3199;49.102;8.856;2022-07-24T03:54:23;19.10;99.90
6333;DHT22;3199;49.102;8.856;2022-07-24T03:56:50;19.10;99.90
6333;DHT22;3199;49.102;8.856;2022-07-24T03:59:16;19.00;99.90
6333;DHT22;3199;49.102;8.856;2022-07-24T04:01:41;19.00;99.90
6333;DHT22;3199;49.102;8.856;2022-07-24T04:04:07;19.00;99.90
6333;DHT22;3199;49.102;8.856;2022-07-24T04:06:33;19.00;99.90
6333;DHT22;3199;49.102;8.856;2022-07-24T04:09:00;19.00;99.90
6333;DHT22;3199;49.102;8.856;2022-07-24T04:11:26;19.10;99.90
6333;DHT22;3199;49.102;8.856;2022-07-24T04:13:52;19.10;99.90
6333;DHT22;3199;49.102;8.856;2022-07-24T04:16:17;19.00;99.90
6333;DHT22;3199;49.102;8.856;2022-07-24T04:18:43;19.10;99.90
6333;DHT22;3199;49.102;8.856;2022-07-24T04:21:08;19.10;99.90
6333;DHT22;3199;49.102;8.856;2022-07-24T04:23:34;19.10;99.90
6333;DHT22;3199;49.102;8.856;2022-07-24T04:26:00;19.10;99.90
6333;DHT22;3199;49.102;8.856;2022-07-24T04:28:26;19.20;99.90
6333;DHT22;3199;49.102;8.856;2022-07-24T04:30:51;19.30;99.90
6333;DHT22;3199;49.102;8.856;2022-07-24T04:33:17;19.30;99.90
6333;DHT22;3199;49.102;8.856;2022-07-24T04:35:43;19.30;99.90
6333;DHT22;3199;49.102;8.856;2022-07-24T04:38:08;19.40;99.90
6333;DHT22;3199;49.102;8.856;2022-07-24T04:40:34;19.40;99.90
6333;DHT22;3199;49.102;8.856;2022-07-24T04:42:59;19.50;99.90
6333;DHT22;3199;49.102;8.856;2022-07-24T04:45:25;19.70;99.90
6333;DHT22;3199;49.102;8.856;2022-07-24T04:47:50;19.90;99.90
6333;DHT22;3199;49.102;8.856;2022-07-24T04:50:16;20.10;99.90
6333;DHT22;3199;49.102;8.856;2022-07-24T04:52:41;20.40;99.90
6333;DHT22;3199;49.102;8.856;2022-07-24T04:55:08;20.70;99.90
6333;DHT22;3199;49.102;8.856;2022-07-24T04:57:33;21.00;99.90
6333;DHT22;3199;49.102;8.856;2022-07-24T04:59:59;21.40;99.90
6333;DHT22;3199;49.102;8.856;2022-07-24T05:02:24;21.70;99.90
6333;DHT22;3199;49.102;8.856;2022-07-24T05:04:50;22.00;99.90
6333;DHT22;3199;49.102;8.856;2022-07-24T05:07:16;22.20;99.90
6333;DHT22;3199;49.102;8.856;2022-07-24T05:09:41;22.50;99.90
6333;DHT22;3199;49.102;8.856;2022-07-24T05:12:07;22.80;99.90
6333;DHT22;3199;49.102;8.856;2022-07-24T05:14:32;23.10;99.90
6333;DHT22;3199;49.102;8.856;2022-07-24T05:16:58;23.40;99.90
6333;DHT22;3199;49.102;8.856;2022-07-24T05:19:23;23.80;99.90
6333;DHT22;3199;49.102;8.856;2022-07-24T05:21:49;24.20;99.90
6333;DHT22;3199;49.102;8.856;2022-07-24T05:24:14;24.60;99.90
6333;DHT22;3199;49.102;8.856;2022-07-24T05:26:40;25.10;99.90
6333;DHT22;3199;49.102;8.856;2022-07-24T05:29:05;25.50;99.90
6333;DHT22;3199;49.102;8.856;2022-07-24T05:31:32;25.80;99.20
6333;DHT22;3199;49.102;8.856;2022-07-24T05:33:58;26.20;98.50
6333;DHT22;3199;49.102;8.856;2022-07-24T05:36:25;26.60;97.70
6333;DHT22;3199;49.102;8.856;2022-07-24T05:38:50;27.00;96.60
6333;DHT22;3199;49.102;8.856;2022-07-24T05:41:16;27.40;95.60
6333;DHT22;3199;49.102;8.856;2022-07-24T05:43:42;27.70;94.80
6333;DHT22;3199;49.102;8.856;2022-07-24T05:46:07;28.10;93.90
6333;DHT22;3199;49.102;8.856;2022-07-24T05:48:33;28.50;92.90
6333;DHT22;3199;49.102;8.856;2022-07-24T05:50:59;28.70;92.10
6333;DHT22;3199;49.102;8.856;2022-07-24T05:53:25;28.90;91.20
6333;DHT22;3199;49.102;8.856;2022-07-24T05:55:51;29.10;90.60
6333;DHT22;3199;49.102;8.856;2022-07-24T05:58:17;29.20;89.90
6333;DHT22;3199;49.102;8.856;2022-07-24T06:00:43;29.50;87.10
6333;DHT22;3199;49.102;8.856;2022-07-24T06:03:08;29.90;86.10
6333;DHT22;3199;49.102;8.856;2022-07-24T06:05:34;30.30;84.30
6333;DHT22;3199;49.102;8.856;2022-07-24T06:08:00;30.50;80.30
6333;DHT22;3199;49.102;8.856;2022-07-24T06:10:25;30.20;79.70
6333;DHT22;3199;49.102;8.856;2022-07-24T06:12:51;30.20;78.20
6333;DHT22;3199;49.102;8.856;2022-07-24T06:15:17;30.20;78.00
6333;DHT22;3199;49.102;8.856;2022-07-24T06:17:42;30.30;77.10
6333;DHT22;3199;49.102;8.856;2022-07-24T06:20:09;30.30;75.40
6333;DHT22;3199;49.102;8.856;2022-07-24T06:22:38;30.50;76.80
6333;DHT22;3199;49.102;8.856;2022-07-24T06:25:04;30.80;74.90
6333;DHT22;3199;49.102;8.856;2022-07-24T06:27:29;31.20;73.80
6333;DHT22;3199;49.102;8.856;2022-07-24T06:29:55;31.50;71.40
6333;DHT22;3199;49.102;8.856;2022-07-24T06:32:20;31.90;70.80
6333;DHT22;3199;49.102;8.856;2022-07-24T06:34:46;32.20;68.80
6333;DHT22;3199;49.102;8.856;2022-07-24T06:37:11;32.70;68.20
6333;DHT22;3199;49.102;8.856;2022-07-24T06:39:37;32.90;65.30
6333;DHT22;3199;49.102;8.856;2022-07-24T06:42:03;32.90;63.70
6333;DHT22;3199;49.102;8.856;2022-07-24T06:44:28;32.90;63.60
6333;DHT22;3199;49.102;8.856;2022-07-24T06:46:54;32.90;63.70
6333;DHT22;3199;49.102;8.856;2022-07-24T06:49:19;33.10;63.10
6333;DHT22;3199;49.102;8.856;2022-07-24T06:51:45;33.70;63.30
6333;DHT22;3199;49.102;8.856;2022-07-24T06:54:13;34.50;61.70
6333;DHT22;3199;49.102;8.856;2022-07-24T06:56:38;34.60;58.50
6333;DHT22;3199;49.102;8.856;2022-07-24T06:59:04;34.70;58.40
6333;DHT22;3199;49.102;8.856;2022-07-24T07:01:29;34.90;57.50
6333;DHT22;3199;49.102;8.856;2022-07-24T07:03:55;35.20;56.00
6333;DHT22;3199;49.102;8.856;2022-07-24T07:06:21;35.60;55.40
6333;DHT22;3199;49.102;8.856;2022-07-24T07:08:47;35.80;53.40
6333;DHT22;3199;49.102;8.856;2022-07-24T07:11:13;35.50;53.80
6333;DHT22;3199;49.102;8.856;2022-07-24T07:13:38;34.70;54.40
6333;DHT22;3199;49.102;8.856;2022-07-24T07:16:04;34.50;55.10
6333;DHT22;3199;49.102;8.856;2022-07-24T07:18:29;34.40;55.50
6333;DHT22;3199;49.102;8.856;2022-07-24T07:20:55;33.90;56.30
6333;DHT22;3199;49.102;8.856;2022-07-24T07:23:24;34.20;57.80
6333;DHT22;3199;49.102;8.856;2022-07-24T07:25:52;35.00;56.00
6333;DHT22;3199;49.102;8.856;2022-07-24T07:28:18;35.60;55.10
6333;DHT22;3199;49.102;8.856;2022-07-24T07:30:44;36.00;54.10
6333;DHT22;3199;49.102;8.856;2022-07-24T07:33:10;35.80;53.40
6333;DHT22;3199;49.102;8.856;2022-07-24T07:35:35;35.40;54.20
6333;DHT22;3199;49.102;8.856;2022-07-24T07:38:01;35.40;54.00
6333;DHT22;3199;49.102;8.856;2022-07-24T07:40:26;35.00;53.90
6333;DHT22;3199;49.102;8.856;2022-07-24T07:42:52;34.20;55.10
6333;DHT22;3199;49.102;8.856;2022-07-24T07:45:17;33.50;57.10
6333;DHT22;3199;49.102;8.856;2022-07-24T07:47:43;33.40;57.40
6333;DHT22;3199;49.102;8.856;2022-07-24T07:50:10;33.60;58.00
6333;DHT22;3199;49.102;8.856;2022-07-24T07:52:35;33.30;56.80
6333;DHT22;3199;49.102;8.856;2022-07-24T07:55:02;33.50;57.00
6333;DHT22;3199;49.102;8.856;2022-07-24T07:57:28;33.50;57.30
6333;DHT22;3199;49.102;8.856;2022-07-24T07:59:53;33.70;57.00
6333;DHT22;3199;49.102;8.856;2022-07-24T08:02:19;34.20;55.60
6333;DHT22;3199;49.102;8.856;2022-07-24T08:04:44;34.60;55.60
6333;DHT22;3199;49.102;8.856;2022-07-24T08:07:10;34.60;54.30
6333;DHT22;3199;49.102;8.856;2022-07-24T08:09:35;34.50;55.30
6333;DHT22;3199;49.102;8.856;2022-07-24T08:12:03;34.60;55.80
6333;DHT22;3199;49.102;8.856;2022-07-24T08:14:29;35.30;55.00
6333;DHT22;3199;49.102;8.856;2022-07-24T08:16:55;36.00;53.70
6333;DHT22;3199;49.102;8.856;2022-07-24T08:19:20;36.40;53.00
6333;DHT22;3199;49.102;8.856;2022-07-24T08:21:46;36.80;52.00
6333;DHT22;3199;49.102;8.856;2022-07-24T08:24:12;36.70;51.50
6333;DHT22;3199;49.102;8.856;2022-07-24T08:26:37;36.50;52.00
6333;DHT22;3199;49.102;8.856;2022-07-24T08:29:03;36.50;50.80
6333;DHT22;3199;49.102;8.856;2022-07-24T08:31:29;36.50;50.90
6333;DHT22;3199;49.102;8.856;2022-07-24T08:33:55;36.40;50.60
6333;DHT22;3199;49.102;8.856;2022-07-24T08:36:21;36.30;50.80
6333;DHT22;3199;49.102;8.856;2022-07-24T08:38:46;36.30;51.50
6333;DHT22;3199;49.102;8.856;2022-07-24T08:41:13;36.30;50.30
6333;DHT22;3199;49.102;8.856;2022-07-24T08:43:38;36.30;49.90
6333;DHT22;3199;49.102;8.856;2022-07-24T08:46:08;36.30;50.90
6333;DHT22;3199;49.102;8.856;2022-07-24T08:48:34;35.90;50.70
6333;DHT22;3199;49.102;8.856;2022-07-24T08:51:01;35.90;50.90
6333;DHT22;3199;49.102;8.856;2022-07-24T08:53:27;35.70;51.10
6333;DHT22;3199;49.102;8.856;2022-07-24T08:55:52;35.50;49.80
6333;DHT22;3199;49.102;8.856;2022-07-24T08:58:18;35.20;51.90
6333;DHT22;3199;49.102;8.856;2022-07-24T09:00:44;35.10;52.00
6333;DHT22;3199;49.102;8.856;2022-07-24T09:03:10;34.90;52.80
6333;DHT22;3199;49.102;8.856;2022-07-24T09:05:54;34.80;52.20
6333;DHT22;3199;49.102;8.856;2022-07-24T09:08:20;35.00;52.20
6333;DHT22;3199;49.102;8.856;2022-07-24T09:11:00;34.90;52.20
6333;DHT22;3199;49.102;8.856;2022-07-24T09:13:27;35.00;52.30
6333;DHT22;3199;49.102;8.856;2022-07-24T09:15:55;35.40;52.80
6333;DHT22;3199;49.102;8.856;2022-07-24T09:18:32;35.80;51.70
6333;DHT22;3199;49.102;8.856;2022-07-24T09:20:59;36.10;51.50
6333;DHT22;3199;49.102;8.856;2022-07-24T09:23:40;36.40;49.10
6333;DHT22;3199;49.102;8.856;2022-07-24T09:26:05;36.50;49.90
6333;DHT22;3199;49.102;8.856;2022-07-24T09:28:49;36.00;48.30
6333;DHT22;3199;49.102;8.856;2022-07-24T09:31:15;35.40;49.80
6333;DHT22;3199;49.102;8.856;2022-07-24T09:33:41;35.50;51.10
6333;DHT22;3199;49.102;8.856;2022-07-24T09:36:14;36.00;50.60
6333;DHT22;3199;49.102;8.856;2022-07-24T09:38:49;36.40;49.50
6333;DHT22;3199;49.102;8.856;2022-07-24T09:41:20;36.60;48.70
6333;DHT22;3199;49.102;8.856;2022-07-24T09:43:59;36.90;48.40
6333;DHT22;3199;49.102;8.856;2022-07-24T09:46:26;37.10;48.30
6333;DHT22;3199;49.102;8.856;2022-07-24T09:48:58;37.00;47.80
6333;DHT22;3199;49.102;8.856;2022-07-24T09:51:25;37.20;46.80
6333;DHT22;3199;49.102;8.856;2022-07-24T09:53:58;36.80;46.80
6333;DHT22;3199;49.102;8.856;2022-07-24T09:56:24;36.40;46.90
6333;DHT22;3199;49.102;8.856;2022-07-24T09:58:53;36.40;48.10
6333;DHT22;3199;49.102;8.856;2022-07-24T10:01:25;36.50;47.30
6333;DHT22;3199;49.102;8.856;2022-07-24T10:03:53;36.60;46.90
6333;DHT22;3199;49.102;8.856;2022-07-24T10:06:21;36.50;48.40
6333;DHT22;3199;49.102;8.856;2022-07-24T10:08:49;36.60;48.50
6333;DHT22;3199;49.102;8.856;2022-07-24T10:11:16;36.90;48.80
6333;DHT22;3199;49.102;8.856;2022-07-24T10:13:43;37.00;47.50
6333;DHT22;3199;49.102;8.856;2022-07-24T10:18:58;37.30;46.40
6333;DHT22;3199;49.102;8.856;2022-07-24T10:21:32;37.30;45.50
6333;DHT22;3199;49.102;8.856;2022-07-24T10:29:17;37.40;44.60
6333;DHT22;3199;49.102;8.856;2022-07-24T10:31:51;37.30;44.70
6333;DHT22;3199;49.102;8.856;2022-07-24T10:40:36;37.40;44.50
6333;DHT22;3199;49.102;8.856;2022-07-24T10:45:36;37.60;42.30
6333;DHT22;3199;49.102;8.856;2022-07-24T10:48:25;37.60;41.90
6333;DHT22;3199;49.102;8.856;2022-07-24T10:53:25;37.30;42.40
6333;DHT22;3199;49.102;8.856;2022-07-24T10:55:51;37.50;41.90
6333;DHT22;3199;49.102;8.856;2022-07-24T10:58:17;37.40;41.00
6333;DHT22;3199;49.102;8.856;2022-07-24T11:00:49;37.10;41.10
6333;DHT22;3199;49.102;8.856;2022-07-24T11:03:19;36.80;41.70
6333;DHT22;3199;49.102;8.856;2022-07-24T11:08:53;37.00;41.60
6333;DHT22;3199;49.102;8.856;2022-07-24T11:11:21;37.20;42.80
6333;DHT22;3199;49.102;8.856;2022-07-24T11:13:54;37.20;42.80
6333;DHT22;3199;49.102;8.856;2022-07-24T11:16:21;37.30;43.00
6333;DHT22;3199;49.102;8.856;2022-07-24T11:21:36;37.50;40.90
6333;DHT22;3199;49.102;8.856;2022-07-24T11:34:33;37.30;42.50
6333;DHT22;3199;49.102;8.856;2022-07-24T11:37:00;37.40;41.40
6333;DHT22;3199;49.102;8.856;2022-07-24T11:39:31;37.50;40.80
6333;DHT22;3199;49.102;8.856;2022-07-24T11:42:00;37.60;41.90
6333;DHT22;3199;49.102;8.856;2022-07-24T11:44:28;37.80;41.60
6333;DHT22;3199;49.102;8.856;2022-07-24T11:46:59;37.60;41.40
6333;DHT22;3199;49.102;8.856;2022-07-24T11:49:26;37.40;40.30
6333;DHT22;3199;49.102;8.856;2022-07-24T11:51:53;37.40;40.30
6333;DHT22;3199;49.102;8.856;2022-07-24T11:54:26;37.30;41.60
6333;DHT22;3199;49.102;8.856;2022-07-24T11:56:53;37.40;42.10
6333;DHT22;3199;49.102;8.856;2022-07-24T11:59:28;37.10;40.20
6333;DHT22;3199;49.102;8.856;2022-07-24T12:02:08;37.00;40.40
6333;DHT22;3199;49.102;8.856;2022-07-24T12:04:36;36.80;40.60
6333;DHT22;3199;49.102;8.856;2022-07-24T12:07:15;36.60;41.50
6333;DHT22;3199;49.102;8.856;2022-07-24T12:09:45;36.70;42.20
6333;DHT22;3199;49.102;8.856;2022-07-24T12:12:28;36.70;40.70
6333;DHT22;3199;49.102;8.856;2022-07-24T12:15:06;36.80;40.90
6333;DHT22;3199;49.102;8.856;2022-07-24T12:20:22;36.50;42.60
6333;DHT22;3199;49.102;8.856;2022-07-24T12:22:48;36.20;42.50
6333;DHT22;3199;49.102;8.856;2022-07-24T12:25:14;36.10;43.00
6333;DHT22;3199;49.102;8.856;2022-07-24T12:27:44;36.10;43.10
6333;DHT22;3199;49.102;8.856;2022-07-24T12:30:23;36.20;43.70
6333;DHT22;3199;49.102;8.856;2022-07-24T12:32:55;36.30;43.00
6333;DHT22;3199;49.102;8.856;2022-07-24T12:35:21;36.50;42.80
6333;DHT22;3199;49.102;8.856;2022-07-24T12:37:47;36.80;41.90
6333;DHT22;3199;49.102;8.856;2022-07-24T12:40:27;36.90;41.70
6333;DHT22;3199;49.102;8.856;2022-07-24T12:43:02;36.90;41.70
6333;DHT22;3199;49.102;8.856;2022-07-24T12:45:28;37.00;41.70
6333;DHT22;3199;49.102;8.856;2022-07-24T12:50:35;36.90;43.10
6333;DHT22;3199;49.102;8.856;2022-07-24T12:53:06;36.70;42.40
6333;DHT22;3199;49.102;8.856;2022-07-24T12:55:32;36.50;42.00
6333;DHT22;3199;49.102;8.856;2022-07-24T12:58:03;36.40;42.90
6333;DHT22;3199;49.102;8.856;2022-07-24T13:00:30;36.20;42.40
6333;DHT22;3199;49.102;8.856;2022-07-24T13:02:56;36.10;42.40
6333;DHT22;3199;49.102;8.856;2022-07-24T13:05:39;36.20;42.70
6333;DHT22;3199;49.102;8.856;2022-07-24T13:08:06;36.30;43.70
6333;DHT22;3199;49.102;8.856;2022-07-24T13:10:33;36.20;42.00
6333;DHT22;3199;49.102;8.856;2022-07-24T13:12:58;36.20;42.40
6333;DHT22;3199;49.102;8.856;2022-07-24T13:15:24;36.30;43.40
6333;DHT22;3199;49.102;8.856;2022-07-24T13:17:49;36.10;43.10
6333;DHT22;3199;49.102;8.856;2022-07-24T13:20:15;35.90;43.40
6333;DHT22;3199;49.102;8.856;2022-07-24T13:22:41;35.70;43.50
6333;DHT22;3199;49.102;8.856;2022-07-24T13:25:07;35.80;44.10
6333;DHT22;3199;49.102;8.856;2022-07-24T13:27:32;35.60;44.50
6333;DHT22;3199;49.102;8.856;2022-07-24T13:29:58;35.50;44.30
6333;DHT22;3199;49.102;8.856;2022-07-24T13:32:23;35.20;43.10
6333;DHT22;3199;49.102;8.856;2022-07-24T13:34:49;35.10;43.90
6333;DHT22;3199;49.102;8.856;2022-07-24T13:37:15;35.10;44.00
6333;DHT22;3199;49.102;8.856;2022-07-24T13:39:40;35.20;44.50
6333;DHT22;3199;49.102;8.856;2022-07-24T13:42:08;35.40;43.80
6333;DHT22;3199;49.102;8.856;2022-07-24T13:44:34;35.70;43.90
6333;DHT22;3199;49.102;8.856;2022-07-24T13:47:00;35.80;43.60
6333;DHT22;3199;49.102;8.856;2022-07-24T13:49:25;35.70;43.10
6333;DHT22;3199;49.102;8.856;2022-07-24T13:51:51;35.80;43.40
6333;DHT22;3199;49.102;8.856;2022-07-24T13:54:17;35.90;44.00
6333;DHT22;3199;49.102;8.856;2022-07-24T13:56:42;35.80;43.40
6333;DHT22;3199;49.102;8.856;2022-07-24T13:59:09;35.80;43.80
6333;DHT22;3199;49.102;8.856;2022-07-24T14:01:35;35.70;44.30
6333;DHT22;3199;49.102;8.856;2022-07-24T14:04:04;35.40;43.60
6333;DHT22;3199;49.102;8.856;2022-07-24T14:06:34;35.40;44.10
6333;DHT22;3199;49.102;8.856;2022-07-24T14:09:00;35.60;44.10
6333;DHT22;3199;49.102;8.856;2022-07-24T14:11:25;35.70;43.00
6333;DHT22;3199;49.102;8.856;2022-07-24T14:13:51;35.60;43.20
6333;DHT22;3199;49.102;8.856;2022-07-24T14:16:17;35.60;43.10
6333;DHT22;3199;49.102;8.856;2022-07-24T14:18:43;35.50;43.30
6333;DHT22;3199;49.102;8.856;2022-07-24T14:21:08;35.40;43.30
6333;DHT22;3199;49.102;8.856;2022-07-24T14:23:34;35.30;44.00
6333;DHT22;3199;49.102;8.856;2022-07-24T14:25:59;35.20;43.70
6333;DHT22;3199;49.102;8.856;2022-07-24T14:28:25;35.20;43.70
6333;DHT22;3199;49.102;8.856;2022-07-24T14:30:50;35.00;44.30
6333;DHT22;3199;49.102;8.856;2022-07-24T14:33:16;34.70;44.40
6333;DHT22;3199;49.102;8.856;2022-07-24T14:35:41;34.30;45.60
6333;DHT22;3199;49.102;8.856;2022-07-24T14:38:07;34.30;45.60
6333;DHT22;3199;49.102;8.856;2022-07-24T14:40:33;34.40;45.50
6333;DHT22;3199;49.102;8.856;2022-07-24T14:42:58;34.40;44.90
6333;DHT22;3199;49.102;8.856;2022-07-24T14:45:24;34.50;46.20
6333;DHT22;3199;49.102;8.856;2022-07-24T14:47:49;34.60;45.10
6333;DHT22;3199;49.102;8.856;2022-07-24T14:50:15;34.50;44.80
6333;DHT22;3199;49.102;8.856;2022-07-24T14:52:40;34.40;44.90
6333;DHT22;3199;49.102;8.856;2022-07-24T14:55:07;34.40;45.40
6333;DHT22;3199;49.102;8.856;2022-07-24T14:57:33;34.20;45.80
6333;DHT22;3199;49.102;8.856;2022-07-24T14:59:58;34.00;45.60
6333;DHT22;3199;49.102;8.856;2022-07-24T15:02:24;33.90;45.50
6333;DHT22;3199;49.102;8.856;2022-07-24T15:04:49;33.80;45.90
6333;DHT22;3199;49.102;8.856;2022-07-24T15:07:15;33.80;45.50
6333;DHT22;3199;49.102;8.856;2022-07-24T15:09:41;33.80;45.70
6333;DHT22;3199;49.102;8.856;2022-07-24T15:12:07;33.80;45.60
6333;DHT22;3199;49.102;8.856;2022-07-24T15:14:32;33.90;45.80
6333;DHT22;3199;49.102;8.856;2022-07-24T15:16:58;33.90;46.10
6333;DHT22;3199;49.102;8.856;2022-07-24T15:19:23;33.70;45.90
6333;DHT22;3199;49.102;8.856;2022-07-24T15:21:49;33.70;46.30
6333;DHT22;3199;49.102;8.856;2022-07-24T15:24:15;33.70;46.30
6333;DHT22;3199;49.102;8.856;2022-07-24T15:26:40;33.70;46.60
6333;DHT22;3199;49.102;8.856;2022-07-24T15:29:06;33.70;46.60
6333;DHT22;3199;49.102;8.856;2022-07-24T15:31:32;33.80;45.80
6333;DHT22;3199;49.102;8.856;2022-07-24T15:33:58;33.90;46.20
6333;DHT22;3199;49.102;8.856;2022-07-24T15:36:23;33.90;46.10
6333;DHT22;3199;49.102;8.856;2022-07-24T15:38:49;34.00;46.00
6333;DHT22;3199;49.102;8.856;2022-07-24T15:41:14;34.00;45.90
6333;DHT22;3199;49.102;8.856;2022-07-24T15:43:40;34.00;45.90
6333;DHT22;3199;49.102;8.856;2022-07-24T15:46:05;34.00;46.00
6333;DHT22;3199;49.102;8.856;2022-07-24T15:48:31;33.90;45.70
6333;DHT22;3199;49.102;8.856;2022-07-24T15:50:56;33.80;46.20
6333;DHT22;3199;49.102;8.856;2022-07-24T15:53:22;33.80;46.30
6333;DHT22;3199;49.102;8.856;2022-07-24T15:55:48;33.70;46.30
6333;DHT22;3199;49.102;8.856;2022-07-24T15:58:13;33.60;46.60
6333;DHT22;3199;49.102;8.856;2022-07-24T16:00:39;33.50;46.40
6333;DHT22;3199;49.102;8.856;2022-07-24T16:03:05;33.40;46.40
6333;DHT22;3199;49.102;8.856;2022-07-24T16:05:30;33.30;46.60
6333;DHT22;3199;49.102;8.856;2022-07-24T16:07:57;33.20;46.60
6333;DHT22;3199;49.102;8.856;2022-07-24T16:10:23;33.20;46.90
6333;DHT22;3199;49.102;8.856;2022-07-24T16:12:50;33.20;47.20
6333;DHT22;3199;49.102;8.856;2022-07-24T16:15:15;33.20;47.20
6333;DHT22;3199;49.102;8.856;2022-07-24T16:17:41;33.10;47.20
6333;DHT22;3199;49.102;8.856;2022-07-24T16:20:08;33.20;47.30
6333;DHT22;3199;49.102;8.856;2022-07-24T16:22:35;33.20;47.30
6333;DHT22;3199;49.102;8.856;2022-07-24T16:25:02;33.20;47.40
6333;DHT22;3199;49.102;8.856;2022-07-24T16:27:28;33.20;47.70
6333;DHT22;3199;49.102;8.856;2022-07-24T16:29:54;33.20;47.40
6333;DHT22;3199;49.102;8.856;2022-07-24T16:32:20;33.10;47.20
6333;DHT22;3199;49.102;8.856;2022-07-24T16:34:45;33.00;47.30
6333;DHT22;3199;49.102;8.856;2022-07-24T16:37:11;32.80;47.30
6333;DHT22;3199;49.102;8.856;2022-07-24T16:39:36;32.70;47.70